createdAt,value
2018-11-26T00:00:19.565Z,20.4
2018-11-26T00:01:09.356Z,20.9
2018-11-26T00:02:01.097Z,21.8
2018-11-26T00:02:50.921Z,22.4
2018-11-26T00:03:41.500Z,22.8
2018-11-26T00:04:30.465Z,23.2
2018-11-26T00:05:20.790Z,23.5
2018-11-26T00:06:10.272Z,23.8
2018-11-26T00:07:01.222Z,24
2018-11-26T00:25:11.709Z,22.3
2018-11-26T00:26:02.602Z,22.2
2018-11-26T00:26:51.789Z,22.1
2018-11-26T00:27:42.979Z,21.9
2018-11-26T00:28:32.236Z,21.9
2018-11-26T00:29:22.526Z,21.8
2018-11-26T00:30:13.218Z,21.7
2018-11-26T00:31:03.458Z,21.6
2018-11-26T00:31:53.236Z,21.4
2018-11-26T00:32:43.586Z,21.3
2018-11-26T00:33:33.093Z,21.3
2018-11-26T00:34:23.439Z,21.2
2018-11-26T00:35:14.021Z,21.1
2018-11-26T00:36:02.998Z,21
2018-11-26T00:36:54.118Z,20.9
2018-11-26T00:37:43.075Z,20.8
2018-11-26T00:38:33.690Z,20.8
2018-11-26T00:39:22.133Z,20.6
2018-11-26T00:40:13.273Z,20.6
2018-11-26T00:41:03.338Z,20.5
2018-11-26T00:41:53.427Z,20.4
2018-11-26T00:42:43.490Z,20.4
2018-11-26T00:43:33.240Z,20.6
2018-11-26T00:44:23.055Z,21.4
2018-11-26T00:45:14.465Z,22.2
2018-11-26T00:46:04.233Z,22.7
2018-11-26T00:46:54.265Z,23.1
2018-11-26T00:47:43.895Z,23.4
2018-11-26T00:48:33.997Z,23.7
2018-11-26T00:49:23.734Z,23.9
2018-11-26T00:50:15.135Z,24.1
2018-11-26T00:51:04.597Z,24.4
2018-11-26T00:51:54.432Z,24.6
2018-11-26T00:52:43.399Z,24.8
2018-11-26T00:53:34.102Z,24.9
2018-11-26T00:54:23.246Z,25.1
2018-11-26T00:55:14.189Z,25.2
2018-11-26T00:56:04.492Z,25.3
2018-11-26T00:56:53.964Z,25.4
2018-11-26T00:57:44.854Z,25.4
2018-11-26T00:58:34.939Z,25.6
2018-11-26T00:59:24.175Z,25.6
2018-11-26T01:00:14.551Z,25.2
2018-11-26T01:01:05.188Z,24.5
2018-11-26T01:01:54.139Z,23.9
2018-11-26T01:02:45.446Z,23.6
2018-11-26T01:03:33.884Z,23.3
2018-11-26T01:04:24.521Z,23
2018-11-26T01:05:15.653Z,22.8
2018-11-26T01:06:05.156Z,22.7
2018-11-26T01:06:54.947Z,22.6
2018-11-26T01:07:45.203Z,22.4
2018-11-26T01:08:35.353Z,22.3
2018-11-26T01:09:25.145Z,22.1
2018-11-26T01:10:14.699Z,22.1
2018-11-26T01:11:05.746Z,21.9
2018-11-26T01:11:55.498Z,21.9
2018-11-26T01:12:44.741Z,21.8
2018-11-26T01:13:34.788Z,21.7
2018-11-26T01:14:25.170Z,21.6
2018-11-26T01:15:15.208Z,21.4
2018-11-26T01:16:06.930Z,21.4
2018-11-26T01:16:56.160Z,21.3
2018-11-26T01:17:45.643Z,21.2
2018-11-26T01:18:36.530Z,21.1
2018-11-26T01:19:26.886Z,21
2018-11-26T01:20:16.349Z,20.9
2018-11-26T01:21:07.300Z,20.9
2018-11-26T01:21:55.955Z,20.8
2018-11-26T01:22:46.009Z,20.7
2018-11-26T01:23:36.336Z,20.6
2018-11-26T01:24:26.381Z,20.5
2018-11-26T01:25:17.077Z,20.5
2018-11-26T01:26:06.548Z,20.7
2018-11-26T01:26:57.385Z,21.4
2018-11-26T01:27:46.137Z,22.1
2018-11-26T01:28:37.182Z,22.6
2018-11-26T01:29:26.755Z,23.1
2018-11-26T01:30:16.257Z,23.4
2018-11-26T01:31:06.342Z,23.6
2018-11-26T01:31:57.318Z,23.9
2018-11-26T01:32:47.307Z,24.1
2018-11-26T01:33:38.169Z,24.3
2018-11-26T01:34:26.557Z,24.5
2018-11-26T01:35:17.412Z,24.7
2018-11-26T01:36:07.551Z,24.9
2018-11-26T01:36:56.184Z,25.1
2018-11-26T01:37:47.612Z,25.2
2018-11-26T01:38:37.746Z,25.3
2018-11-26T01:39:28.053Z,25.4
2018-11-26T01:40:18.102Z,25.5
2018-11-26T01:41:07.906Z,25.6
2018-11-26T01:41:57.351Z,25.7
2018-11-26T01:42:47.708Z,25.4
2018-11-26T01:43:38.311Z,24.6
2018-11-26T01:44:28.325Z,24.1
2018-11-26T01:45:18.126Z,23.7
2018-11-26T01:46:09.036Z,23.4
2018-11-26T01:46:58.609Z,23.1
2018-11-26T01:47:48.634Z,22.9
2018-11-26T01:48:38.398Z,22.8
2018-11-26T01:49:28.526Z,22.6
2018-11-26T01:50:18.540Z,22.4
2018-11-26T01:51:08.560Z,22.4
2018-11-26T01:51:58.898Z,22.2
2018-11-26T01:52:48.933Z,22.1
2018-11-26T01:53:37.895Z,22
2018-11-26T01:54:28.236Z,21.9
2018-11-26T01:55:18.845Z,21.8
2018-11-26T01:56:09.165Z,21.7
2018-11-26T01:56:59.540Z,21.6
2018-11-26T01:57:49.319Z,21.5
2018-11-26T01:58:39.658Z,21.4
2018-11-26T01:59:28.598Z,21.3
2018-11-26T02:00:18.665Z,21.3
2018-11-26T02:01:58.794Z,21.1
2018-11-26T02:02:49.670Z,21
2018-11-26T02:03:39.714Z,20.9
2018-11-26T02:04:31.149Z,20.8
2018-11-26T02:05:19.358Z,20.7
2018-11-26T02:06:09.329Z,20.6
2018-11-26T02:07:01.069Z,20.6
2018-11-26T02:07:49.771Z,20.6
2018-11-26T02:08:38.447Z,21
2018-11-26T02:09:29.590Z,21.8
2018-11-26T02:10:19.172Z,22.4
2018-11-26T02:11:10.237Z,22.9
2018-11-26T02:12:00.310Z,23.3
2018-11-26T02:12:49.079Z,23.6
2018-11-26T02:13:40.987Z,23.9
2018-11-26T02:14:30.999Z,24.1
2018-11-26T02:15:20.513Z,24.3
2018-11-26T02:16:09.829Z,24.5
2018-11-26T02:17:00.666Z,24.7
2018-11-26T02:17:50.496Z,24.9
2018-11-26T02:18:39.154Z,25
2018-11-26T02:19:30.553Z,25.2
2018-11-26T02:20:20.374Z,25.3
2018-11-26T02:21:10.421Z,25.4
2018-11-26T02:21:59.106Z,25.5
2018-11-26T02:22:51.364Z,25.6
2018-11-26T02:23:40.293Z,25.7
2018-11-26T02:24:31.167Z,25.5
2018-11-26T02:25:21.028Z,24.8
2018-11-26T02:26:11.043Z,24.3
2018-11-26T02:27:01.397Z,23.8
2018-11-26T02:27:51.959Z,23.5
2018-11-26T02:28:41.476Z,23.2
2018-11-26T02:29:31.853Z,22.9
2018-11-26T02:30:21.581Z,22.8
2018-11-26T02:31:10.921Z,22.6
2018-11-26T02:32:02.016Z,22.5
2018-11-26T02:32:50.755Z,22.4
2018-11-26T02:33:42.137Z,22.3
2018-11-26T02:34:30.528Z,22.1
2018-11-26T02:35:21.699Z,22
2018-11-26T02:36:12.006Z,21.9
2018-11-26T02:37:01.240Z,21.8
2018-11-26T02:37:52.193Z,21.7
2018-11-26T02:38:41.708Z,21.6
2018-11-26T02:39:32.007Z,21.5
2018-11-26T02:40:21.288Z,21.4
2018-11-26T02:41:11.632Z,21.3
2018-11-26T02:42:03.355Z,21.3
2018-11-26T02:43:42.015Z,21.1
2018-11-26T02:44:31.770Z,20.9
2018-11-26T02:45:22.675Z,20.9
2018-11-26T02:46:12.698Z,20.8
2018-11-26T02:47:02.806Z,20.8
2018-11-26T02:47:52.311Z,20.6
2018-11-26T02:48:43.222Z,20.6
2018-11-26T02:49:32.388Z,20.7
2018-11-26T02:50:23.313Z,21.4
2018-11-26T02:51:14.164Z,22.1
2018-11-26T02:52:03.741Z,22.7
2018-11-26T02:52:52.114Z,23.1
2018-11-26T02:53:42.710Z,23.4
2018-11-26T02:54:32.274Z,23.7
2018-11-26T02:55:22.899Z,23.9
2018-11-26T02:56:13.692Z,24.2
2018-11-26T02:57:02.374Z,24.4
2018-11-26T02:57:53.046Z,24.6
2018-11-26T02:58:44.308Z,24.8
2018-11-26T02:59:34.516Z,25
2018-11-26T03:00:23.291Z,25.1
2018-11-26T03:01:12.751Z,25.3
2018-11-26T03:02:03.554Z,25.4
2018-11-26T03:02:52.588Z,25.5
2018-11-26T03:03:43.736Z,25.6
2018-11-26T03:04:34.074Z,25.6
2018-11-26T03:05:23.266Z,25.8
2018-11-26T03:06:14.454Z,25.3
2018-11-26T03:07:04.246Z,24.6
2018-11-26T03:07:54.806Z,24.1
2018-11-26T03:08:43.668Z,23.6
2018-11-26T03:09:34.668Z,23.4
2018-11-26T03:10:24.734Z,23.1
2018-11-26T03:11:14.523Z,22.9
2018-11-26T03:12:04.000Z,22.7
2018-11-26T03:12:54.137Z,22.5
2018-11-26T03:13:44.411Z,22.4
2018-11-26T03:14:35.013Z,22.3
2018-11-26T03:15:24.786Z,22.1
2018-11-26T03:16:15.190Z,22
2018-11-26T03:17:04.625Z,21.9
2018-11-26T03:17:54.539Z,21.8
2018-11-26T03:18:44.228Z,21.8
2018-11-26T03:19:33.767Z,21.6
2018-11-26T03:20:24.881Z,21.6
2018-11-26T03:21:16.623Z,21.4
2018-11-26T03:22:05.376Z,21.4
2018-11-26T03:22:55.665Z,21.3
2018-11-26T03:24:35.705Z,21.1
2018-11-26T03:25:24.967Z,21
2018-11-26T03:26:16.369Z,20.9
2018-11-26T03:27:05.648Z,20.8
2018-11-26T03:27:54.858Z,20.8
2018-11-26T03:28:45.182Z,20.7
2018-11-26T03:29:34.465Z,20.6
2018-11-26T03:30:26.549Z,20.6
2018-11-26T03:31:15.338Z,20.9
2018-11-26T03:32:05.779Z,21.7
2018-11-26T03:32:56.170Z,22.4
2018-11-26T03:33:46.369Z,22.9
2018-11-26T03:34:35.879Z,23.3
2018-11-26T03:35:25.735Z,23.6
2018-11-26T03:36:16.243Z,23.9
2018-11-26T03:37:06.389Z,24.1
2018-11-26T03:37:56.374Z,24.3
2018-11-26T03:38:45.326Z,24.5
2018-11-26T03:39:36.017Z,24.8
2018-11-26T03:40:26.121Z,24.9
2018-11-26T03:41:15.898Z,25.1
2018-11-26T03:42:06.979Z,25.2
2018-11-26T03:42:55.958Z,25.3
2018-11-26T03:43:47.393Z,25.4
2018-11-26T03:44:35.801Z,25.5
2018-11-26T03:45:27.541Z,25.6
2018-11-26T03:46:17.304Z,25.6
2018-11-26T03:47:07.051Z,25.6
2018-11-26T03:47:57.072Z,24.9
2018-11-26T03:48:47.433Z,24.3
2018-11-26T03:49:37.474Z,23.8
2018-11-26T03:50:27.596Z,23.5
2018-11-26T03:51:17.136Z,23.2
2018-11-26T03:52:07.378Z,22.9
2018-11-26T03:52:56.562Z,22.8
2018-11-26T03:53:47.518Z,22.6
2018-11-26T03:54:37.323Z,22.5
2018-11-26T03:55:27.375Z,22.3
2018-11-26T03:56:18.189Z,22.2
2018-11-26T03:57:08.058Z,22.1
2018-11-26T03:57:58.608Z,22
2018-11-26T03:58:47.897Z,21.9
2018-11-26T03:59:37.883Z,21.8
2018-11-26T04:00:26.331Z,21.7
2018-11-26T04:01:17.505Z,21.6
2018-11-26T04:02:07.860Z,21.5
2018-11-26T04:02:58.708Z,21.4
2018-11-26T04:03:48.227Z,21.3
2018-11-26T04:04:38.075Z,21.2
2018-11-26T04:06:17.310Z,21.1
2018-11-26T04:07:08.132Z,20.9
2018-11-26T04:07:58.214Z,20.9
2018-11-26T04:08:48.092Z,20.8
2018-11-26T04:09:37.832Z,20.7
2018-11-26T04:10:27.317Z,20.6
2018-11-26T04:11:18.189Z,20.5
2018-11-26T04:12:07.659Z,20.6
2018-11-26T04:12:58.562Z,21.2
2018-11-26T04:13:48.062Z,21.9
2018-11-26T04:14:38.971Z,22.6
2018-11-26T04:15:29.559Z,22.9
2018-11-26T04:16:18.569Z,23.3
2018-11-26T04:17:07.766Z,23.6
2018-11-26T04:17:59.217Z,23.9
2018-11-26T04:18:48.511Z,24.1
2018-11-26T04:19:38.531Z,24.3
2018-11-26T04:20:29.101Z,24.5
2018-11-26T04:21:19.463Z,24.7
2018-11-26T04:22:09.328Z,24.9
2018-11-26T04:22:59.908Z,25.1
2018-11-26T04:23:48.770Z,25.1
2018-11-26T04:24:39.664Z,25.3
2018-11-26T04:25:30.641Z,25.4
2018-11-26T04:26:19.271Z,25.5
2018-11-26T04:27:10.152Z,25.6
2018-11-26T04:27:59.375Z,25.6
2018-11-26T04:28:50.788Z,25.6
2018-11-26T04:29:40.053Z,24.9
2018-11-26T04:30:30.436Z,24.3
2018-11-26T04:31:19.315Z,23.8
2018-11-26T04:32:09.618Z,23.4
2018-11-26T04:32:59.776Z,23.1
2018-11-26T04:33:50.623Z,22.9
2018-11-26T04:34:39.538Z,22.8
2018-11-26T04:35:30.183Z,22.5
2018-11-26T04:36:19.755Z,22.4
2018-11-26T04:54:23.323Z,20.4
2018-11-26T04:55:12.439Z,20.3
2018-11-26T04:56:03.211Z,20.2
2018-11-26T04:56:52.716Z,20.1
2018-11-26T04:57:50.546Z,20.1
2018-11-26T04:58:33.964Z,19.9
2018-11-26T04:59:23.794Z,19.9
2018-11-26T05:00:14.120Z,19.8
2018-11-26T05:01:03.367Z,19.8
2018-11-26T05:01:53.964Z,19.7
2018-11-26T05:02:43.756Z,19.6
2018-11-26T05:03:32.397Z,19.6
2018-11-26T05:04:23.816Z,19.4
2018-11-26T05:05:13.402Z,19.4
2018-11-26T05:06:03.159Z,19.3
2018-11-26T05:06:53.449Z,19.4
2018-11-26T05:07:43.023Z,19.8
2018-11-26T05:08:34.143Z,20.7
2018-11-26T05:09:23.881Z,21.4
2018-11-26T05:10:14.586Z,22.1
2018-11-26T05:11:04.893Z,22.6
2018-11-26T05:11:54.085Z,23
2018-11-26T05:12:44.150Z,23.3
2018-11-26T05:13:33.903Z,23.6
2018-11-26T05:14:23.659Z,23.9
2018-11-26T05:15:13.507Z,24.1
2018-11-26T05:16:05.267Z,24.3
2018-11-26T05:16:54.162Z,24.5
2018-11-26T05:17:44.765Z,24.7
2018-11-26T05:18:33.482Z,24.8
2018-11-26T05:19:24.067Z,24.9
2018-11-26T05:20:14.420Z,25.1
2018-11-26T05:21:04.428Z,25.2
2018-11-26T05:21:55.269Z,25.3
2018-11-26T05:22:44.900Z,25.3
2018-11-26T05:23:34.629Z,25.3
2018-11-26T05:24:24.933Z,24.6
2018-11-26T05:25:14.567Z,23.9
2018-11-26T05:26:05.672Z,23.5
2018-11-26T05:26:55.905Z,23.1
2018-11-26T05:27:45.186Z,22.9
2018-11-26T05:28:35.015Z,22.6
2018-11-26T05:29:25.844Z,22.4
2018-11-26T05:30:14.873Z,22.3
2018-11-26T05:31:05.450Z,22.1
2018-11-26T05:31:55.419Z,22
2018-11-26T05:32:45.860Z,21.9
2018-11-26T05:33:34.770Z,21.8
2018-11-26T05:34:26.734Z,21.7
2018-11-26T05:35:15.669Z,21.6
2018-11-26T05:36:04.654Z,21.5
2018-11-26T05:36:54.931Z,21.4
2018-11-26T05:37:45.609Z,21.3
2018-11-26T05:38:36.227Z,21.2
2018-11-26T05:39:26.085Z,21.1
2018-11-26T05:40:16.075Z,21
2018-11-26T05:41:05.007Z,20.9
2018-11-26T05:41:57.200Z,20.8
2018-11-26T05:42:45.402Z,20.8
2018-11-26T05:43:36.279Z,20.6
2018-11-26T05:44:26.297Z,20.6
2018-11-26T05:45:17.002Z,20.5
2018-11-26T05:46:06.202Z,20.4
2018-11-26T05:46:56.237Z,20.3
2018-11-26T05:47:46.347Z,20.3
2018-11-26T05:48:36.055Z,20.1
2018-11-26T05:49:27.252Z,20.1
2018-11-26T05:50:15.900Z,20
2018-11-26T05:51:06.514Z,19.9
2018-11-26T05:51:57.684Z,19.9
2018-11-26T05:52:46.703Z,19.8
2018-11-26T05:53:36.755Z,19.7
2018-11-26T05:54:27.651Z,19.6
2018-11-26T05:55:17.621Z,19.6
2018-11-26T05:56:07.154Z,19.5
2018-11-26T05:56:56.385Z,19.5
2018-11-26T05:57:47.619Z,19.9
2018-11-26T05:58:37.946Z,20.8
2018-11-26T05:59:26.873Z,21.5
2018-11-26T06:00:16.906Z,22.2
2018-11-26T06:01:07.231Z,22.6
2018-11-26T06:01:58.379Z,22.9
2018-11-26T06:02:47.352Z,23.3
2018-11-26T06:03:37.693Z,23.6
2018-11-26T06:04:28.013Z,23.8
2018-11-26T06:05:18.312Z,24.1
2018-11-26T06:06:07.603Z,24.3
2018-11-26T06:06:57.892Z,24.4
2018-11-26T06:07:47.937Z,24.6
2018-11-26T06:08:36.900Z,24.8
2018-11-26T06:09:27.543Z,24.9
2018-11-26T06:10:17.945Z,25.1
2018-11-26T06:11:07.093Z,25.1
2018-11-26T06:11:58.283Z,25.3
2018-11-26T06:12:48.338Z,25.3
2018-11-26T06:13:37.836Z,25.2
2018-11-26T06:14:29.272Z,24.5
2018-11-26T06:15:18.557Z,23.9
2018-11-26T06:16:08.382Z,23.4
2018-11-26T06:17:01.010Z,23.1
2018-11-26T06:17:49.325Z,22.8
2018-11-26T06:18:39.860Z,22.6
2018-11-26T06:19:28.340Z,22.4
2018-11-26T06:20:18.057Z,22.3
2018-11-26T06:21:08.745Z,22.1
2018-11-26T06:21:59.484Z,21.9
2018-11-26T06:22:48.847Z,21.8
2018-11-26T06:23:39.139Z,21.8
2018-11-26T06:24:28.324Z,21.6
2018-11-26T06:25:20.697Z,21.6
2018-11-26T06:26:09.252Z,21.4
2018-11-26T06:26:59.585Z,21.3
2018-11-26T06:27:48.862Z,21.3
2018-11-26T06:28:40.001Z,21.2
2018-11-26T06:29:29.316Z,21.1
2018-11-26T06:30:19.303Z,20.9
2018-11-26T06:31:08.807Z,20.9
2018-11-26T06:31:59.411Z,20.8
2018-11-26T06:32:49.980Z,20.8
2018-11-26T06:33:40.124Z,20.6
2018-11-26T06:34:28.806Z,20.6
2018-11-26T06:35:19.678Z,20.5
2018-11-26T06:36:09.969Z,20.4
2018-11-26T06:36:59.994Z,20.3
2018-11-26T06:37:50.161Z,20.3
2018-11-26T06:38:40.655Z,20.1
2018-11-26T06:39:29.641Z,20.1
2018-11-26T06:40:20.021Z,20
2018-11-26T06:41:10.331Z,19.9
2018-11-26T06:42:00.866Z,19.9
2018-11-26T06:42:50.985Z,19.8
2018-11-26T06:43:40.033Z,19.8
2018-11-26T06:44:30.578Z,19.6
2018-11-26T06:45:20.636Z,19.7
2018-11-26T06:46:10.911Z,20.1
2018-11-26T06:47:01.015Z,20.9
2018-11-26T06:47:51.630Z,21.7
2018-11-26T06:48:40.889Z,22.3
2018-11-26T06:49:30.900Z,22.7
2018-11-26T06:50:21.325Z,23.1
2018-11-26T06:51:10.748Z,23.4
2018-11-26T06:52:01.305Z,23.6
2018-11-26T06:52:51.686Z,23.9
2018-11-26T06:53:41.710Z,24.1
2018-11-26T06:54:30.413Z,24.3
2018-11-26T06:55:21.362Z,24.5
2018-11-26T06:56:11.330Z,24.7
2018-11-26T06:57:01.963Z,24.8
2018-11-26T06:57:50.933Z,24.9
2018-11-26T06:58:40.937Z,25.1
2018-11-26T06:59:31.402Z,25.1
2018-11-26T07:00:22.290Z,25.3
2018-11-26T07:01:11.969Z,25.4
2018-11-26T07:02:02.955Z,25.4
2018-11-26T07:02:51.874Z,24.8
2018-11-26T07:03:42.659Z,24.1
2018-11-26T07:04:31.979Z,23.6
2018-11-26T07:05:21.781Z,23.3
2018-11-26T07:06:12.343Z,22.9
2018-11-26T07:07:01.588Z,22.7
2018-11-26T07:07:52.189Z,22.5
2018-11-26T07:08:42.754Z,22.3
2018-11-26T07:09:32.568Z,22.2
2018-11-26T07:10:22.633Z,22.1
2018-11-26T07:11:12.912Z,21.9
2018-11-26T07:12:01.643Z,21.8
2018-11-26T07:12:52.523Z,21.7
2018-11-26T07:13:42.870Z,21.6
2018-11-26T07:14:32.906Z,21.5
2018-11-26T07:15:23.282Z,21.4
2018-11-26T07:16:11.367Z,21.3
2018-11-26T07:17:03.317Z,21.2
2018-11-26T07:18:42.920Z,21.1
2018-11-26T07:19:32.697Z,20.9
2018-11-26T07:20:23.089Z,20.8
2018-11-26T07:21:13.117Z,20.8
2018-11-26T07:22:03.414Z,20.7
2018-11-26T07:22:53.804Z,20.6
2018-11-26T07:23:43.005Z,20.5
2018-11-26T07:24:33.594Z,20.4
2018-11-26T07:25:23.753Z,20.4
2018-11-26T07:26:13.451Z,20.3
2018-11-26T07:27:03.811Z,20.2
2018-11-26T07:27:53.627Z,20.1
2018-11-26T07:28:43.331Z,20.1
2018-11-26T07:29:34.511Z,20
2018-11-26T07:30:24.854Z,19.9
2018-11-26T07:31:13.855Z,19.9
2018-11-26T07:32:04.211Z,19.8
2018-11-26T07:32:53.934Z,19.7
2018-11-26T07:33:43.442Z,19.6
2018-11-26T07:34:34.856Z,19.8
2018-11-26T07:35:23.831Z,20.5
2018-11-26T07:36:19.186Z,21.3
2018-11-26T07:37:04.746Z,22.1
2018-11-26T07:37:54.846Z,22.6
2018-11-26T07:38:44.701Z,22.9
2018-11-26T07:39:34.071Z,23.3
2018-11-26T07:40:24.989Z,23.6
2018-11-26T07:41:14.267Z,23.8
2018-11-26T07:42:03.973Z,24.1
2018-11-26T07:42:55.703Z,24.3
2018-11-26T07:43:44.716Z,24.5
2018-11-26T07:44:35.034Z,24.7
2018-11-26T07:45:24.228Z,24.8
2018-11-26T07:46:14.295Z,25
2018-11-26T07:47:06.008Z,25.1
2018-11-26T07:47:55.217Z,25.3
2018-11-26T07:48:44.188Z,25.3
2018-11-26T07:49:34.558Z,25.4
2018-11-26T07:50:24.673Z,25.4
2018-11-26T07:51:15.502Z,24.8
2018-11-26T07:52:04.970Z,24.1
2018-11-26T07:52:54.480Z,23.6
2018-11-26T07:53:44.610Z,23.3
2018-11-26T07:54:35.990Z,22.9
2018-11-26T07:55:24.190Z,22.7
2018-11-26T07:56:15.887Z,22.5
2018-11-26T07:57:06.242Z,22.4
2018-11-26T07:57:56.061Z,22.3
2018-11-26T07:58:44.957Z,22.1
2018-11-26T07:59:36.125Z,21.9
2018-11-26T08:00:25.114Z,21.9
2018-11-26T08:01:14.938Z,21.8
2018-11-26T08:02:05.057Z,21.6
2018-11-26T08:02:55.274Z,21.6
2018-11-26T08:03:44.752Z,21.5
2018-11-26T08:04:35.664Z,21.4
2018-11-26T08:05:25.196Z,21.3
2018-11-26T08:06:17.212Z,21.2
2018-11-26T08:07:06.667Z,21.1
2018-11-26T08:07:53.965Z,21
2018-11-26T08:08:46.186Z,20.9
2018-11-26T08:09:36.294Z,20.8
2018-11-26T08:10:24.901Z,20.8
2018-11-26T08:11:16.434Z,20.7
2018-11-26T08:12:07.079Z,20.6
2018-11-26T08:12:55.999Z,20.5
2018-11-26T08:13:46.671Z,20.4
2018-11-26T08:14:36.111Z,20.4
2018-11-26T08:15:27.811Z,20.3
2018-11-26T08:16:16.731Z,20.2
2018-11-26T08:17:06.923Z,20.1
2018-11-26T08:17:56.962Z,20.1
2018-11-26T08:18:46.936Z,20
2018-11-26T08:19:37.585Z,19.9
2018-11-26T08:20:26.561Z,19.8
2018-11-26T08:21:17.107Z,19.8
2018-11-26T08:22:07.717Z,19.7
2018-11-26T08:22:56.424Z,19.8
2018-11-26T08:23:47.515Z,20.5
2018-11-26T08:24:35.945Z,21.4
2018-11-26T08:25:28.058Z,22.1
2018-11-26T08:26:16.385Z,22.6
2018-11-26T08:27:07.843Z,23
2018-11-26T08:27:57.580Z,23.4
2018-11-26T08:28:47.633Z,23.6
2018-11-26T08:29:37.410Z,23.9
2018-11-26T08:30:28.672Z,24.1
2018-11-26T08:31:17.873Z,24.4
2018-11-26T08:32:07.136Z,24.5
2018-11-26T08:32:57.964Z,24.8
2018-11-26T08:33:47.994Z,24.9
2018-11-26T08:34:36.923Z,25.1
2018-11-26T08:35:27.335Z,25.2
2018-11-26T08:36:17.371Z,25.3
2018-11-26T08:37:07.908Z,25.4
2018-11-26T08:37:58.063Z,25.4
2018-11-26T08:38:49.106Z,25.4
2018-11-26T08:39:38.988Z,24.7
2018-11-26T08:40:29.186Z,24.1
2018-11-26T08:41:18.607Z,23.6
2018-11-26T08:42:08.853Z,23.3
2018-11-26T08:42:59.387Z,22.9
2018-11-26T08:43:48.911Z,22.7
2018-11-26T08:44:39.567Z,22.5
2018-11-26T08:45:29.842Z,22.3
2018-11-26T08:46:18.653Z,22.2
2018-11-26T08:47:09.160Z,22.1
2018-11-26T08:47:59.046Z,21.9
2018-11-26T08:48:48.697Z,21.9
2018-11-26T08:49:39.853Z,21.8
2018-11-26T08:50:29.317Z,21.6
2018-11-26T08:51:19.227Z,21.6
2018-11-26T08:52:08.962Z,21.4
2018-11-26T09:08:52.233Z,19.8
2018-11-26T09:09:40.948Z,19.8
2018-11-26T09:10:31.569Z,19.8
2018-11-26T09:11:21.909Z,20.1
2018-11-26T09:12:12.521Z,20.9
2018-11-26T09:13:02.581Z,21.7
2018-11-26T09:13:51.293Z,22.3
2018-11-26T09:14:41.414Z,22.8
2018-11-26T09:15:31.976Z,23.2
2018-11-26T09:16:22.231Z,23.5
2018-11-26T09:17:11.498Z,23.8
2018-11-26T09:18:01.492Z,24.1
2018-11-26T09:18:52.153Z,24.3
2018-11-26T09:19:40.808Z,24.5
2018-11-26T09:20:32.601Z,24.7
2018-11-26T09:21:21.805Z,24.8
2018-11-26T09:22:11.853Z,25
2018-11-26T09:23:03.256Z,25.1
2018-11-26T09:23:51.653Z,25.3
2018-11-26T09:24:42.340Z,25.4
2018-11-26T09:25:31.762Z,25.5
2018-11-26T09:26:22.097Z,25.6
2018-11-26T09:27:17.595Z,25.2
2018-11-26T09:28:01.156Z,24.4
2018-11-26T09:28:52.340Z,23.9
2018-11-26T09:29:42.634Z,23.5
2018-11-26T09:30:31.975Z,23.2
2018-11-26T09:31:22.485Z,22.9
2018-11-26T09:32:12.230Z,22.7
2018-11-26T09:33:02.897Z,22.5
2018-11-26T09:33:52.947Z,22.3
2018-11-26T09:34:41.714Z,22.2
2018-11-26T09:35:33.060Z,22.1
2018-11-26T09:36:23.372Z,22
2018-11-26T09:37:13.149Z,21.9
2018-11-26T09:38:03.275Z,21.8
2018-11-26T09:38:53.259Z,21.6
2018-11-26T09:39:42.737Z,21.6
2018-11-26T09:40:33.111Z,21.5
2018-11-26T09:41:22.624Z,21.4
2018-11-26T09:42:14.341Z,21.3
2018-11-26T09:43:03.664Z,21.2
2018-11-26T09:43:52.867Z,21.1
2018-11-26T09:44:43.601Z,21
2018-11-26T09:45:41.497Z,20.9
2018-11-26T09:46:24.358Z,20.8
2018-11-26T09:47:12.736Z,20.8
2018-11-26T09:48:03.151Z,20.7
2018-11-26T09:48:54.236Z,20.6
2018-11-26T09:49:46.024Z,20.6
2018-11-26T09:50:33.541Z,20.4
2018-11-26T09:51:23.586Z,20.4
2018-11-26T09:52:13.371Z,20.3
2018-11-26T09:53:04.056Z,20.3
2018-11-26T09:53:54.649Z,20.1
2018-11-26T09:54:44.158Z,20.1
2018-11-26T09:55:33.866Z,20
2018-11-26T09:56:24.808Z,19.9
2018-11-26T09:57:14.571Z,19.9
2018-11-26T09:58:05.188Z,19.8
2018-11-26T09:58:54.388Z,19.8
2018-11-26T09:59:45.057Z,20.1
2018-11-26T10:00:33.957Z,21
2018-11-26T10:01:24.015Z,21.8
2018-11-26T10:02:15.736Z,22.4
2018-11-26T10:03:04.866Z,22.9
2018-11-26T10:03:53.920Z,23.3
2018-11-26T10:04:45.230Z,23.6
2018-11-26T10:05:34.318Z,23.9
2018-11-26T10:06:25.055Z,24.1
2018-11-26T10:07:14.165Z,24.4
2018-11-26T10:08:04.775Z,24.6
2018-11-26T10:08:55.407Z,24.8
2018-11-26T10:09:45.434Z,24.9
2018-11-26T10:10:34.130Z,25.1
2018-11-26T10:11:24.958Z,25.3
2018-11-26T10:12:14.539Z,25.4
2018-11-26T10:13:04.895Z,25.6
2018-11-26T10:13:54.827Z,25.6
2018-11-26T10:14:45.794Z,25.6
2018-11-26T10:15:35.082Z,24.9
2018-11-26T10:16:25.412Z,24.3
2018-11-26T10:17:15.395Z,23.8
2018-11-26T10:18:05.997Z,23.4
2018-11-26T10:18:56.422Z,23.1
2018-11-26T10:19:46.104Z,22.9
2018-11-26T10:20:36.716Z,22.7
2018-11-26T10:21:25.946Z,22.5
2018-11-26T10:22:15.961Z,22.4
2018-11-26T10:23:05.254Z,22.2
2018-11-26T10:23:57.244Z,22.1
2018-11-26T10:24:46.788Z,21.9
2018-11-26T10:25:36.270Z,21.9
2018-11-26T10:26:27.139Z,21.8
2018-11-26T10:27:16.649Z,21.6
2018-11-26T10:28:06.199Z,21.6
2018-11-26T10:28:56.773Z,21.4
2018-11-26T10:29:47.048Z,21.4
2018-11-26T10:30:36.873Z,21.3
2018-11-26T10:31:26.951Z,21.2
2018-11-26T10:33:06.561Z,21
2018-11-26T10:33:56.661Z,20.9
2018-11-26T10:34:47.783Z,20.9
2018-11-26T10:35:38.027Z,20.8
2018-11-26T10:36:27.013Z,20.7
2018-11-26T10:37:17.343Z,20.6
2018-11-26T10:38:08.193Z,20.6
2018-11-26T10:38:56.872Z,20.4
2018-11-26T10:39:48.300Z,20.4
2018-11-26T10:40:37.597Z,20.3
2018-11-26T10:41:27.465Z,20.3
2018-11-26T10:42:17.998Z,20.1
2018-11-26T10:43:15.363Z,20.1
2018-11-26T10:43:57.560Z,20
2018-11-26T10:44:47.590Z,19.9
2018-11-26T10:45:37.410Z,19.9
2018-11-26T10:46:28.810Z,19.8
2018-11-26T10:47:18.585Z,19.8
2018-11-26T10:48:07.285Z,20.1
2018-11-26T10:48:58.725Z,21
2018-11-26T10:49:49.567Z,21.8
2018-11-26T10:50:38.012Z,22.5
2018-11-26T10:51:27.880Z,22.9
2018-11-26T10:52:17.855Z,23.3
2018-11-26T10:53:08.098Z,23.7
2018-11-26T10:53:59.062Z,23.9
2018-11-26T10:54:48.867Z,24.3
2018-11-26T10:55:39.037Z,24.5
2018-11-26T10:56:27.534Z,24.7
2018-11-26T10:57:17.940Z,24.9
2018-11-26T10:58:08.839Z,25.1
2018-11-26T10:58:58.639Z,25.3
2018-11-26T10:59:49.406Z,25.4
2018-11-26T11:00:39.932Z,25.5
2018-11-26T11:01:28.997Z,25.6
2018-11-26T11:02:18.832Z,25.7
2018-11-26T11:03:09.464Z,24.9
2018-11-26T11:04:00.143Z,24.3
2018-11-26T11:04:55.776Z,23.8
2018-11-26T11:05:39.294Z,23.4
2018-11-26T11:06:28.604Z,23.1
2018-11-26T11:07:19.983Z,22.9
2018-11-26T11:08:10.611Z,22.7
2018-11-26T11:09:00.146Z,22.5
2018-11-26T11:09:49.611Z,22.4
2018-11-26T11:10:39.128Z,22.3
2018-11-26T11:11:31.773Z,22.1
2018-11-26T11:12:19.786Z,22
2018-11-26T11:13:09.312Z,21.9
2018-11-26T11:13:59.658Z,21.8
2018-11-26T11:14:50.259Z,21.7
2018-11-26T11:15:40.605Z,21.6
2018-11-26T11:16:30.390Z,21.6
2018-11-26T11:17:19.848Z,21.4
2018-11-26T11:18:09.400Z,21.4
2018-11-26T11:19:00.849Z,21.3
2018-11-26T11:19:50.035Z,21.2
2018-11-26T11:21:30.403Z,21
2018-11-26T11:22:19.496Z,20.9
2018-11-26T11:23:11.082Z,20.8
2018-11-26T11:24:01.458Z,20.8
2018-11-26T11:24:50.465Z,20.7
2018-11-26T11:25:39.708Z,20.6
2018-11-26T11:26:31.869Z,20.6
2018-11-26T11:27:20.126Z,20.5
2018-11-26T11:28:11.256Z,20.4
2018-11-26T11:29:01.283Z,20.3
2018-11-26T11:29:50.787Z,20.3
2018-11-26T11:30:41.392Z,20.2
2018-11-26T11:31:31.216Z,20.1
2018-11-26T11:32:20.729Z,20
2018-11-26T11:34:01.473Z,19.9
2018-11-26T11:34:51.416Z,19.8
2018-11-26T11:35:41.927Z,20
2018-11-26T11:36:32.522Z,20.8
2018-11-26T11:37:22.319Z,21.6
2018-11-26T11:38:12.394Z,22.4
2018-11-26T11:39:01.942Z,22.9
2018-11-26T11:39:52.869Z,23.3
2018-11-26T11:40:41.815Z,23.7
2018-11-26T11:41:38.716Z,24
2018-11-26T11:42:22.448Z,24.3
2018-11-26T11:43:12.283Z,24.5
2018-11-26T11:44:02.246Z,24.8
2018-11-26T11:44:53.134Z,24.9
2018-11-26T11:45:43.193Z,25.2
2018-11-26T11:46:33.597Z,25.4
2018-11-26T11:47:23.592Z,25.5
2018-11-26T11:48:13.368Z,25.7
2018-11-26T11:49:02.883Z,25.8
2018-11-26T11:49:53.195Z,25.6
2018-11-26T11:50:42.800Z,24.9
2018-11-26T11:51:33.290Z,24.3
2018-11-26T11:52:23.662Z,23.8
2018-11-26T11:53:13.423Z,23.4
2018-11-26T11:54:02.967Z,23.2
2018-11-26T11:54:53.302Z,22.9
2018-11-26T11:55:43.122Z,22.8
2018-11-26T11:56:33.987Z,22.6
2018-11-26T11:57:23.734Z,22.4
2018-11-26T11:58:15.470Z,22.3
2018-11-26T11:59:03.567Z,22.2
2018-11-26T11:59:54.740Z,22.1
2018-11-26T12:00:43.706Z,21.9
2018-11-26T12:01:34.821Z,21.9
2018-11-26T12:02:25.004Z,21.8
2018-11-26T12:03:14.219Z,21.7
2018-11-26T12:04:04.206Z,21.6
2018-11-26T12:04:54.341Z,21.5